Strona główna
METAR-TAF:

METAR-TAF

Lotnisko :

Port lotniczy Korfu

Korfu, Grecja

Szerokość geograficzna: 39-37N, Długość geograficzna: 019-55E, wysokość: 2 m

Aktualna obserwacja pogody

Raport powstał 22 minut temu, godzina 19:20 UTC
Wiatr 7 kt od południowo-południowy wschód
Temperatura 20°C
Wilgotność 83%
Ciśnienie 1013 hPa
Widzialność 10 km lub więcej
Mało chmury na wysokości 1700 ft

METAR: LGKR 041920Z 15007KT 9999 FEW017 20/17 Q1013 NOSIG

czas: 22:42 (19:42 UTC)

Prognoza

Raport powstał 2 godziny i 42 minut temu, godzina 17:00 UTC
Prognoza ważna od 04 godzina 18 UTC do 05 godzina 18 UTC
Wiatr 12 kt od południowo-południowy wschód
Widzialność 10 km lub więcej
Mało chmury na wysokości 2000 ft
Przejściowo
od 05 godzina 09 UTC do 05 godzina 18 UTC
Wiatr 12 kt od południowo-południowy wschód w porywach dochodzący do 22 kt

TAF: LGKR 041700Z 0418/0518 16012KT 9999 FEW020 TEMPO 0509/0518 16012G22KT

Obserwacja i prognoza pogody dla ponad 4000 lotnisk (raport METAR i TAF).

Dostępne stacje oznaczono żółtymi i czerwonymi punktami na mapie.

Najedź kursorem aby zobaczyć nazwę stacji.

Kliknij aby zobaczyć obserwacje i prognozy pogody.

Aby zmienić mapę: kliknij na zielony przycisk z czarnym krzyżykiem, aby powiększyć; na zielony przycisk z myślnikiem, aby pomniejszyć; na zielone strzałki, aby przejść do map sąsiednich.


METAR-TAF: